logo
Rechercher aéroport 
image banner adimage banner adimage banner ad
image banner ad

TDCF - Roseau / Canefield - Int

Situé à Roseau, Dominica

ICAO - TDCF, IATA - DCF

Données fournies par Airmate  

Information générale

Coordonnées: N15°20'12" W61°23'32"
Élévation : 13 feet MSL.
Variation magnétique : -15° East
Évalué:
Voir évaluations:
[VIEW]
Voir autres Aéroports à Saint Paul

Données opérationnelles

Special qualification required
Heure actuelle UTC:
Heure actuelle locale:
Météo
METAR: TDCF 231600Z 30003KT 9999 SCT017 30/21 Q1014
Voir NOTAMs / SUP AIP / TFR affectant cet aéroport [VIEW]
Fréquences de communication: [VIEW]

Pistes:

Identifiant RWYQFULongueur (ft)Largeur (ft)SurfaceLDA (ft)
01355°312375ASP
19175°312375ASP

Coordonnées de l'aéroport

Adresse: Roseau Dominica

Vue satellite de TDCF